Time;durP1;ratioP1;P1;durP2;ratioP2;P2;SDS_P1;SDS_P2;PMS_P1;PMS_P2;Temp;Humidity;BMP_temperature;BMP_pressure;BME280_temperature;BME280_humidity;BME280_pressure;Samples;Min_cycle;Max_cycle;Signal;HPM_P1;HPM_P2
2023/05/30 00:02:13;;;;;;;0.00;0.00;;;;;;;16.59;100.00;99835.09;6122762;23;20006;-96
2023/05/30 00:04:39;;;;;;;0.65;0.50;;;;;;;16.51;100.00;99817.88;6100068;23;20017;-95
2023/05/30 00:07:06;;;;;;;0.57;0.57;;;;;;;16.42;100.00;99817.22;6098752;23;20032;-90
2023/05/30 00:09:32;;;;;;;1.17;1.08;;;;;;;16.67;100.00;99865.03;6072701;23;20026;-91
2023/05/30 00:11:57;;;;;;;0.70;0.30;;;;;;;16.48;100.00;99830.06;6096207;23;20025;-89
2023/05/30 00:14:23;;;;;;;0.50;0.50;;;;;;;16.54;100.00;99844.91;6072599;23;20443;-90
2023/05/30 00:16:49;;;;;;;0.28;0.28;;;;;;;16.55;100.00;99849.25;6094895;23;20511;-90
2023/05/30 00:19:14;;;;;;;2.38;0.65;;;;;;;16.33;100.00;99816.06;6120736;23;20014;-91
2023/05/30 00:21:40;;;;;;;0.40;0.40;;;;;;;16.50;100.00;99849.19;6096260;23;20078;-90
2023/05/30 00:24:06;;;;;;;0.28;0.28;;;;;;;16.48;100.00;99843.28;6072263;23;20056;-89
2023/05/30 00:26:32;;;;;;;1.33;0.80;;;;;;;16.39;100.00;99841.34;6095752;23;20010;-90
2023/05/30 00:28:57;;;;;;;1.83;1.05;;;;;;;16.39;100.00;99838.53;6120994;23;20018;-90
2023/05/30 00:31:23;;;;;;;0.68;0.65;;;;;;;16.56;100.00;99864.03;6120806;23;20433;-90
2023/05/30 00:33:49;;;;;;;0.80;0.57;;;;;;;16.32;100.00;99820.13;6119891;23;20425;-91
2023/05/30 00:36:16;;;;;;;1.38;1.10;;;;;;;16.54;100.00;99861.72;6098039;23;20018;-95
2023/05/30 00:38:41;;;;;;;0.17;0.17;;;;;;;16.28;100.00;99827.16;6076753;23;20410;-96
2023/05/30 00:41:07;;;;;;;1.65;0.73;;;;;;;16.08;100.00;99799.81;6099876;23;20013;-95
2023/05/30 00:43:33;;;;;;;1.17;0.80;;;;;;;16.13;100.00;99815.94;6076971;23;20021;-95
2023/05/30 00:46:01;;;;;;;0.90;0.82;;;;;;;16.08;100.00;99801.84;6076686;23;20048;-95
2023/05/30 00:48:27;;;;;;;0.75;0.25;;;;;;;15.90;100.00;99796.41;6100812;23;20024;-96
2023/05/30 00:50:53;;;;;;;0.57;0.50;;;;;;;16.14;100.00;99834.25;6077702;23;20005;-95
2023/05/30 00:53:21;;;;;;;0.85;0.85;;;;;;;16.12;100.00;99836.00;6104284;23;20017;-96
2023/05/30 00:55:50;;;;;;;0.10;0.10;;;;;;;16.18;100.00;99859.25;6080874;23;20021;-96
2023/05/30 00:58:16;;;;;;;1.13;1.10;;;;;;;15.97;100.00;99832.41;6077618;23;20022;-95
2023/05/30 01:06:17;;;;;;;1.05;0.98;;;;;;;16.01;100.00;99847.00;6115285;23;20465;-94
2023/05/30 01:08:45;;;;;;;10.57;1.17;;;;;;;15.97;100.00;99840.81;6073374;23;20054;-93
2023/05/30 01:11:27;;;;;;;0.65;0.65;;;;;;;15.98;100.00;99859.13;6096109;23;20453;-93
2023/05/30 01:14:10;;;;;;;0.55;0.55;;;;;;;15.91;100.00;99853.88;6096468;23;20069;-93
2023/05/30 01:16:40;;;;;;;0.90;0.50;;;;;;;15.96;100.00;99856.03;6072816;23;20018;-94
2023/05/30 01:19:26;;;;;;;0.82;0.40;;;;;;;15.88;100.00;99863.25;6072308;23;20018;-93
2023/05/30 01:22:01;;;;;;;0.40;0.40;;;;;;;15.79;100.00;99848.06;6120334;23;20021;-91
2023/05/30 01:24:35;;;;;;;1.98;0.98;;;;;;;15.76;100.00;99851.84;6073361;23;20018;-92
2023/05/30 01:27:26;;;;;;;0.77;0.77;;;;;;;15.63;100.00;99833.75;6071954;23;20017;-93
2023/05/30 01:29:53;;;;;;;2.22;1.45;;;;;;;15.77;100.00;99858.94;6084511;23;20025;-92
2023/05/30 01:32:19;;;;;;;0.40;0.40;;;;;;;15.75;100.00;99853.06;6071065;23;20006;-93
2023/05/30 01:34:45;;;;;;;0.08;0.03;;;;;;;15.66;100.00;99833.56;6071727;23;20009;-94
2023/05/30 01:37:13;;;;;;;0.75;0.75;;;;;;;15.78;100.00;99854.13;6074032;23;20084;-95
2023/05/30 01:39:39;;;;;;;2.67;0.57;;;;;;;15.72;100.00;99859.63;6072945;23;20450;-93
2023/05/30 01:42:11;;;;;;;1.55;0.88;;;;;;;15.68;100.00;99850.66;6094868;23;20040;-93
2023/05/30 01:44:57;;;;;;;0.38;0.38;;;;;;;15.56;100.00;99851.66;6097150;23;20113;-93
2023/05/30 01:47:41;;;;;;;1.35;1.25;;;;;;;15.59;100.00;99856.28;6071458;23;20509;-94
2023/05/30 01:50:14;;;;;;;0.52;0.47;;;;;;;15.60;100.00;99860.66;6072669;23;20354;-94
2023/05/30 01:52:41;;;;;;;0.55;0.55;;;;;;;15.46;100.00;99836.16;6072917;23;20017;-93
2023/05/30 01:55:09;;;;;;;0.50;0.50;;;;;;;15.56;100.00;99851.66;6097029;23;20060;-94
2023/05/30 01:57:47;;;;;;;0.10;0.10;;;;;;;15.54;100.00;99848.56;6072027;23;20009;-92
2023/05/30 02:00:15;;;;;;;0.65;0.30;;;;;;;15.43;100.00;99834.31;6073097;23;20020;-94
2023/05/30 02:02:43;;;;;;;1.25;0.50;;;;;;;15.49;100.00;99854.00;6051191;23;20014;-93
2023/05/30 02:05:09;;;;;;;0.55;0.55;;;;;;;15.36;100.00;99831.88;6043507;23;20350;-93
2023/05/30 02:07:35;;;;;;;0.30;0.30;;;;;;;15.44;100.00;99841.44;6066743;23;20015;-94
2023/05/30 02:10:01;;;;;;;0.05;0.05;;;;;;;15.38;100.00;99826.56;6042469;23;20019;-92
2023/05/30 02:12:26;;;;;;;2.38;0.68;;;;;;;15.53;100.00;99847.00;6041812;23;20133;-92
2023/05/30 02:14:54;;;;;;;0.60;0.60;;;;;;;15.52;100.00;99850.28;6042895;23;20323;-94
2023/05/30 02:17:22;;;;;;;0.52;0.52;;;;;;;15.47;100.00;99840.50;6041438;23;20494;-91
2023/05/30 02:19:48;;;;;;;0.75;0.75;;;;;;;15.59;100.00;99864.69;6042155;23;20014;-94
2023/05/30 02:22:14;;;;;;;0.47;0.47;;;;;;;15.56;100.00;99857.25;6042211;23;20113;-94
2023/05/30 02:24:42;;;;;;;1.92;1.40;;;;;;;15.55;100.00;99844.50;6043624;23;20006;-94
2023/05/30 02:27:08;;;;;;;0.50;0.45;;;;;;;15.49;100.00;99835.19;6042274;23;20045;-94
2023/05/30 02:29:33;;;;;;;0.70;0.70;;;;;;;15.60;100.00;99855.06;6043187;23;20089;-93
2023/05/30 02:31:59;;;;;;;1.50;0.73;;;;;;;15.63;100.00;99848.50;6040871;23;20455;-93
2023/05/30 02:34:25;;;;;;;0.57;0.57;;;;;;;15.47;100.00;99826.53;6042192;23;20424;-94
2023/05/30 02:36:50;;;;;;;0.82;0.82;;;;;;;15.58;100.00;99843.56;6042219;23;20023;-92
2023/05/30 02:39:17;;;;;;;0.30;0.30;;;;;;;15.50;100.00;99831.19;6043220;23;20018;-94
2023/05/30 02:41:43;;;;;;;3.05;0.88;;;;;;;15.48;100.00;99828.06;6042930;23;20014;-93
2023/05/30 02:44:08;;;;;;;0.45;0.35;;;;;;;15.56;100.00;99832.09;6043166;23;20084;-93
2023/05/30 02:46:35;;;;;;;1.58;0.35;;;;;;;15.57;100.00;99842.00;6042906;23;20521;-92
2023/05/30 02:49:01;;;;;;;1.00;0.52;;;;;;;15.51;100.00;99818.75;6042298;23;20014;-93
2023/05/30 02:51:27;;;;;;;0.65;0.65;;;;;;;15.52;100.00;99817.53;6067993;23;20006;-93
2023/05/30 02:53:53;;;;;;;0.60;0.60;;;;;;;15.60;100.00;99835.47;6043517;23;20023;-94
2023/05/30 02:56:27;;;;;;;0.33;0.33;;;;;;;15.55;100.00;99822.16;6068131;23;20023;-93
2023/05/30 02:59:19;;;;;;;0.68;0.52;;;;;;;15.57;100.00;99830.06;6067962;23;20085;-94
2023/05/30 03:01:52;;;;;;;0.50;0.50;;;;;;;15.42;100.00;99802.00;6068729;23;20025;-93
2023/05/30 03:04:17;;;;;;;0.68;0.68;;;;;;;15.57;100.00;99827.28;6042564;23;20018;-94
2023/05/30 03:06:45;;;;;;;0.38;0.38;;;;;;;15.61;100.00;99833.47;6044064;23;20018;-94
2023/05/30 03:09:23;;;;;;;0.30;0.30;;;;;;;15.52;100.00;99816.75;6047975;23;20010;-92
2023/05/30 03:11:49;;;;;;;2.22;1.05;;;;;;;15.55;100.00;99821.38;6043289;23;20081;-93
2023/05/30 03:14:15;;;;;;;0.90;0.63;;;;;;;15.67;100.00;99834.34;6043116;23;20443;-93
2023/05/30 03:16:42;;;;;;;1.02;0.98;;;;;;;15.50;100.00;99813.63;6043617;23;20422;-93
2023/05/30 03:19:10;;;;;;;1.88;1.33;;;;;;;15.62;100.00;99840.56;6066422;23;20404;-93
2023/05/30 03:21:37;;;;;;;5.28;2.25;;;;;;;15.53;100.00;99837.88;6090403;23;20070;-93
2023/05/30 03:24:04;;;;;;;0.68;0.68;;;;;;;15.53;100.00;99827.44;6067025;23;20517;-93
2023/05/30 03:26:33;;;;;;;0.75;0.57;;;;;;;15.52;100.00;99844.69;6067358;23;20061;-93
2023/05/30 03:28:59;;;;;;;0.40;0.32;;;;;;;15.43;100.00;99834.31;6043312;23;20124;-92
2023/05/30 03:31:29;;;;;;;0.35;0.25;;;;;;;15.45;100.00;99845.03;6067909;23;20026;-93
2023/05/30 03:33:55;;;;;;;0.57;0.55;;;;;;;15.38;100.00;99835.72;6042690;23;20010;-94
2023/05/30 03:36:21;;;;;;;0.73;0.70;;;;;;;15.35;100.00;99835.91;6066575;23;20014;-94
2023/05/30 03:38:47;;;;;;;0.43;0.40;;;;;;;15.33;100.00;99838.38;6041722;23;20018;-94
2023/05/30 03:41:12;;;;;;;0.65;0.63;;;;;;;15.27;100.00;99834.72;6090114;23;20062;-93
2023/05/30 03:43:38;;;;;;;1.17;1.08;;;;;;;15.36;100.00;99849.41;6042132;23;20010;-93
2023/05/30 03:46:04;;;;;;;1.23;1.00;;;;;;;15.23;100.00;99839.69;6065177;23;20050;-92
2023/05/30 03:48:30;;;;;;;0.50;0.50;;;;;;;15.21;100.00;99853.34;6039218;23;20018;-93
2023/05/30 03:50:55;;;;;;;0.65;0.65;;;;;;;15.15;100.00;99849.69;6041686;23;20019;-92
2023/05/30 03:53:21;;;;;;;0.80;0.80;;;;;;;15.14;100.00;99859.28;6042456;23;20011;-94
2023/05/30 03:55:47;;;;;;;0.73;0.73;;;;;;;14.97;100.00;99844.16;6041738;23;20387;-94
2023/05/30 03:58:15;;;;;;;0.68;0.55;;;;;;;15.01;100.00;99872.69;6043196;23;20341;-91
2023/05/30 04:00:40;;;;;;;0.88;0.88;;;;;;;14.90;100.00;99865.59;6068517;23;20007;-93
2023/05/30 04:03:06;;;;;;;0.65;0.65;;;;;;;14.90;100.00;99860.00;6043059;23;20018;-93
2023/05/30 04:05:32;;;;;;;0.20;0.20;;;;;;;14.96;100.00;99876.91;6044641;23;20109;-93
2023/05/30 04:07:58;;;;;;;0.55;0.55;;;;;;;14.88;100.00;99868.06;6044546;23;20350;-93
2023/05/30 04:10:24;;;;;;;0.50;0.50;;;;;;;14.89;100.00;99878.00;6045220;23;20049;-92
2023/05/30 04:12:51;;;;;;;0.77;0.47;;;;;;;14.88;100.00;99876.44;6070561;23;20041;-94
2023/05/30 04:15:17;;;;;;;1.05;0.75;;;;;;;14.97;100.00;99881.25;6044966;23;20018;-92
2023/05/30 04:17:43;;;;;;;0.65;0.65;;;;;;;14.96;100.00;99879.72;6044050;23;20025;-95
2023/05/30 04:20:09;;;;;;;0.57;0.57;;;;;;;14.90;100.00;99876.78;6045121;23;20054;-94
2023/05/30 04:22:37;;;;;;;2.47;1.05;;;;;;;14.89;100.00;99877.22;6044841;23;20486;-94
2023/05/30 04:25:03;;;;;;;1.08;0.47;;;;;;;15.02;100.00;99897.38;6045008;23;20060;-93
2023/05/30 04:27:29;;;;;;;0.50;0.43;;;;;;;14.93;100.00;99883.44;6067913;23;20442;-94
2023/05/30 04:29:55;;;;;;;0.35;0.35;;;;;;;14.99;100.00;99897.53;6043927;23;20073;-92
2023/05/30 04:32:21;;;;;;;0.32;0.32;;;;;;;14.93;100.00;99883.44;6043408;23;20030;-92
2023/05/30 04:34:48;;;;;;;0.63;0.63;;;;;;;15.00;100.00;99883.13;6067572;23;20073;-94
2023/05/30 04:37:17;;;;;;;1.65;1.50;;;;;;;14.98;100.00;99877.22;6067188;23;20458;-92
2023/05/30 04:39:44;;;;;;;0.60;0.60;;;;;;;15.04;100.00;99899.69;6066086;23;20028;-90
2023/05/30 04:42:10;;;;;;;0.50;0.50;;;;;;;15.07;100.00;99895.97;6042093;23;20137;-91
2023/05/30 04:44:38;;;;;;;1.67;1.10;;;;;;;15.05;100.00;99907.59;6061861;23;20585;-92
2023/05/30 04:47:10;;;;;;;1.30;0.65;;;;;;;15.03;100.00;99898.94;6041220;23;20044;-94
2023/05/30 04:49:41;;;;;;;1.38;1.02;;;;;;;15.12;100.00;99906.50;6064114;23;20014;-93
2023/05/30 04:52:07;;;;;;;0.20;0.20;;;;;;;15.06;100.00;99880.44;6042116;23;20018;-95
2023/05/30 04:54:33;;;;;;;0.68;0.68;;;;;;;14.90;100.00;99871.19;6087949;23;20045;-95
2023/05/30 04:56:58;;;;;;;0.15;0.15;;;;;;;15.21;100.00;99903.66;6065833;23;20011;-94
2023/05/30 04:59:25;;;;;;;1.13;1.02;;;;;;;15.11;100.00;99888.97;6042698;23;20002;-93
2023/05/30 05:01:52;;;;;;;0.43;0.32;;;;;;;15.20;100.00;99893.75;6039158;23;20586;-93
2023/05/30 05:04:17;;;;;;;0.45;0.45;;;;;;;15.14;100.00;99906.78;6040118;23;20109;-93
2023/05/30 05:06:43;;;;;;;0.40;0.40;;;;;;;15.08;100.00;99891.94;6063634;23;20014;-94
2023/05/30 05:09:10;;;;;;;0.52;0.52;;;;;;;15.15;100.00;99920.31;6070076;23;20093;-95
2023/05/30 05:11:36;;;;;;;1.65;1.45;;;;;;;15.10;100.00;99908.97;6053668;23;20029;-95
2023/05/30 05:14:02;;;;;;;0.40;0.22;;;;;;;15.04;100.00;99899.69;6072236;23;20022;-94
2023/05/30 05:16:28;;;;;;;5.28;0.70;;;;;;;15.09;100.00;99907.41;6045187;23;20024;-94
2023/05/30 05:18:53;;;;;;;0.63;0.57;;;;;;;15.12;100.00;99923.25;6089799;23;20045;-95
2023/05/30 05:21:19;;;;;;;0.88;0.47;;;;;;;15.19;100.00;99928.50;6068178;23;20406;-93
2023/05/30 05:23:44;;;;;;;1.30;0.85;;;;;;;15.18;100.00;99926.94;6092355;23;20061;-95
2023/05/30 05:26:10;;;;;;;0.20;0.20;;;;;;;15.18;100.00;99926.94;6094491;23;20065;-94
2023/05/30 05:28:36;;;;;;;1.17;1.00;;;;;;;15.09;100.00;99924.19;6043693;23;20030;-94
2023/05/30 05:31:01;;;;;;;1.27;1.20;;;;;;;15.07;100.00;99923.91;6067908;23;20030;-93
2023/05/30 05:33:27;;;;;;;2.45;0.98;;;;;;;15.02;100.00;99927.31;6043185;23;20300;-93
2023/05/30 05:35:53;;;;;;;0.28;0.28;;;;;;;15.00;100.00;99938.19;6043910;23;20024;-93
2023/05/30 05:38:18;;;;;;;0.47;0.47;;;;;;;15.02;100.00;99938.50;6067526;23;20015;-92
2023/05/30 05:40:44;;;;;;;0.88;0.43;;;;;;;15.01;100.00;99942.53;6092382;23;20387;-95
2023/05/30 05:43:10;;;;;;;0.52;0.52;;;;;;;15.02;100.00;99944.84;6067392;23;20010;-93
2023/05/30 05:45:35;;;;;;;0.45;0.45;;;;;;;14.98;100.00;99935.09;6091572;23;20085;-93
2023/05/30 05:48:01;;;;;;;0.57;0.57;;;;;;;14.90;100.00;99935.41;6066195;23;20439;-92
2023/05/30 05:50:26;;;;;;;0.10;0.10;;;;;;;14.88;100.00;99937.91;6090869;23;20465;-93
2023/05/30 05:52:52;;;;;;;1.88;1.35;;;;;;;14.81;100.00;99921.47;6067062;23;20015;-93
2023/05/30 05:55:18;;;;;;;0.75;0.75;;;;;;;14.85;100.00;99927.66;6067338;23;20073;-93
2023/05/30 05:57:43;;;;;;;0.47;0.47;;;;;;;14.89;100.00;99936.66;6091456;23;20091;-94
2023/05/30 06:00:09;;;;;;;2.42;2.22;;;;;;;14.91;100.00;99941.78;6091265;23;20081;-93
2023/05/30 06:02:41;;;;;;;0.68;0.60;;;;;;;14.95;100.00;99950.78;6090644;23;20022;-94
2023/05/30 06:05:07;;;;;;;0.50;0.50;;;;;;;14.87;100.00;99946.75;6067019;23;20036;-94
2023/05/30 06:07:33;;;;;;;0.80;0.40;;;;;;;14.76;100.00;99933.25;6067323;23;20129;-93
2023/05/30 06:09:59;;;;;;;1.33;1.23;;;;;;;14.74;100.00;99935.75;6092908;23;20014;-93
2023/05/30 06:12:25;;;;;;;0.55;0.55;;;;;;;14.76;100.00;99947.22;6091144;23;20010;-94
2023/05/30 06:14:51;;;;;;;1.00;0.95;;;;;;;14.77;100.00;99942.41;6067884;23;20010;-94
2023/05/30 06:17:16;;;;;;;1.73;1.30;;;;;;;14.73;100.00;99939.00;6066456;23;20021;-94
2023/05/30 06:19:42;;;;;;;0.32;0.32;;;;;;;14.78;100.00;99952.34;6091518;23;20118;-93
2023/05/30 06:22:08;;;;;;;2.30;1.27;;;;;;;14.76;100.00;99941.63;6066710;23;20065;-92
2023/05/30 06:24:33;;;;;;;0.40;0.40;;;;;;;14.71;100.00;99931.13;6091210;23;20018;-93
2023/05/30 06:26:59;;;;;;;1.25;1.02;;;;;;;14.85;100.00;99944.41;6092854;23;20015;-93
2023/05/30 06:29:26;;;;;;;3.58;1.85;;;;;;;14.84;100.00;99947.69;6067591;23;20081;-93
2023/05/30 06:31:51;;;;;;;0.43;0.43;;;;;;;14.96;100.00;99948.75;6067108;23;20014;-93
2023/05/30 06:34:17;;;;;;;0.57;0.57;;;;;;;14.94;100.00;99952.78;6066284;23;20037;-94
2023/05/30 06:36:43;;;;;;;1.20;1.10;;;;;;;15.03;100.00;99943.63;6067492;23;20015;-93
2023/05/30 06:39:15;;;;;;;1.08;0.98;;;;;;;15.06;100.00;99950.28;6090958;23;20081;-93
2023/05/30 06:41:44;;;;;;;0.60;0.60;;;;;;;15.21;100.00;99956.75;6068486;23;20186;-94
2023/05/30 06:44:10;;;;;;;0.80;0.80;;;;;;;15.28;100.00;99953.63;6066867;23;20029;-94
2023/05/30 06:46:36;;;;;;;0.82;0.65;;;;;;;15.39;100.00;99953.91;6067024;23;20383;-94
2023/05/30 06:49:02;;;;;;;0.32;0.32;;;;;;;15.51;100.00;99954.97;6066038;23;20018;-93
2023/05/30 06:51:27;;;;;;;0.38;0.38;;;;;;;15.61;100.00;99956.47;6043246;23;20375;-93
2023/05/30 06:53:54;;;;;;;1.80;0.68;;;;;;;15.75;100.00;99973.31;6067257;23;20111;-95
2023/05/30 06:56:20;;;;;;;0.57;0.57;;;;;;;15.63;100.00;99943.56;6068216;23;20014;-92
2023/05/30 06:58:48;;;;;;;1.60;1.38;;;;;;;15.72;100.00;99949.13;6067180;23;20014;-94
2023/05/30 07:01:14;;;;;;;0.20;0.20;;;;;;;15.80;100.00;99938.34;6067092;23;20025;-92
2023/05/30 07:03:42;;;;;;;0.50;0.47;;;;;;;15.90;100.00;99941.84;6065979;23;20339;-92
2023/05/30 07:06:08;;;;;;;4.53;1.38;;;;;;;15.90;100.00;99939.06;6066389;23;20011;-93
2023/05/30 07:08:33;;;;;;;1.05;0.68;;;;;;;15.97;100.00;99941.50;6091192;23;20041;-94
2023/05/30 07:10:59;;;;;;;0.22;0.20;;;;;;;16.19;100.00;99961.56;6090778;23;20233;-92
2023/05/30 07:13:24;;;;;;;0.00;0.00;;;;;;;16.23;100.00;99943.34;6090892;23;20020;-93
2023/05/30 07:15:50;;;;;;;0.57;0.57;;;;;;;16.44;100.00;99955.47;6067524;23;20011;-94
2023/05/30 07:18:16;;;;;;;0.98;0.90;;;;;;;16.77;100.00;99975.75;6066060;23;20050;-94
2023/05/30 07:20:42;;;;;;;0.60;0.60;;;;;;;16.96;100.00;99969.94;6066955;23;20007;-95
2023/05/30 07:23:07;;;;;;;0.35;0.25;;;;;;;17.15;100.00;99971.28;6090247;23;20395;-92
2023/05/30 07:25:33;;;;;;;0.90;0.90;;;;;;;17.35;100.00;99965.78;6042712;23;20019;-92
2023/05/30 07:27:59;;;;;;;0.13;0.13;;;;;;;17.37;100.00;99973.72;6066564;23;20111;-92
2023/05/30 07:30:24;;;;;;;2.17;1.05;;;;;;;17.45;100.00;99950.41;6091115;23;20017;-92
2023/05/30 07:32:50;;;;;;;0.20;0.20;;;;;;;17.62;100.00;99957.06;6090390;23;20061;-92
2023/05/30 07:35:16;;;;;;;0.75;0.75;;;;;;;17.85;100.00;99989.03;6068480;23;20007;-92
2023/05/30 07:37:42;;;;;;;0.65;0.65;;;;;;;17.98;100.00;99974.66;6044754;23;20050;-94
2023/05/30 07:40:07;;;;;;;0.75;0.52;;;;;;;18.09;100.00;99980.41;6094307;23;20463;-94
2023/05/30 07:42:34;;;;;;;1.42;0.93;;;;;;;18.13;100.00;99983.78;6069346;23;20346;-93
2023/05/30 07:45:00;;;;;;;1.60;1.02;;;;;;;18.37;100.00;99995.59;6092919;23;20081;-93
2023/05/30 07:47:26;;;;;;;0.47;0.30;;;;;;;18.68;100.00;100002.63;6091631;23;20473;-93
2023/05/30 07:49:52;;;;;;;0.35;0.35;;;;;;;18.92;100.00;99997.53;6092714;23;20006;-92
2023/05/30 07:52:17;;;;;;;0.55;0.50;;;;;;;19.06;100.00;100017.09;6092218;23;20014;-93
2023/05/30 07:54:43;;;;;;;0.73;0.50;;;;;;;19.12;99.69;100000.28;6092860;23;20006;-93
2023/05/30 07:57:12;;;;;;;0.75;0.75;;;;;;;19.00;97.06;99995.84;6092052;23;20044;-93
2023/05/30 07:59:40;;;;;;;3.60;0.70;;;;;;;19.08;95.74;99996.94;6094108;23;20016;-93
2023/05/30 08:02:06;;;;;;;2.47;1.02;;;;;;;19.22;95.03;99993.22;6067283;23;20387;-94
2023/05/30 08:04:31;;;;;;;0.43;0.40;;;;;;;19.30;93.06;99997.13;6092290;23;20014;-93
2023/05/30 08:06:57;;;;;;;0.77;0.47;;;;;;;19.61;90.91;100004.84;6092044;23;20037;-91
2023/05/30 08:09:23;;;;;;;1.13;1.10;;;;;;;19.83;90.82;100012.66;6092771;23;20457;-95
2023/05/30 08:11:48;;;;;;;4.22;0.68;;;;;;;19.89;88.83;100002.22;6092044;23;20009;-94
2023/05/30 08:14:14;;;;;;;0.25;0.20;;;;;;;19.96;92.80;100002.53;6091841;23;20046;-92
2023/05/30 08:16:40;;;;;;;1.55;0.95;;;;;;;20.14;90.78;100011.84;6044281;23;20204;-92
2023/05/30 08:19:05;;;;;;;0.70;0.70;;;;;;;19.91;95.58;100013.75;6067216;23;20017;-93
2023/05/30 08:21:31;;;;;;;1.58;1.27;;;;;;;19.66;98.70;100006.91;6092644;23;20029;-93
2023/05/30 08:23:57;;;;;;;1.20;1.10;;;;;;;19.62;100.00;99999.97;6068032;23;20018;-92
2023/05/30 08:26:24;;;;;;;1.35;0.63;;;;;;;19.35;100.00;100002.03;6093069;23;20136;-92
2023/05/30 08:28:51;;;;;;;1.15;1.05;;;;;;;19.47;100.00;100022.63;6092368;23;20006;-92
2023/05/30 08:31:19;;;;;;;1.55;1.23;;;;;;;19.34;100.00;100013.78;6092746;23;20125;-93
2023/05/30 08:33:45;;;;;;;0.20;0.20;;;;;;;19.26;100.00;100019.06;6091413;23;20025;-93
2023/05/30 08:36:10;;;;;;;0.93;0.93;;;;;;;19.19;100.00;100019.53;6093680;23;20006;-92
2023/05/30 08:38:36;;;;;;;0.40;0.40;;;;;;;19.04;100.00;100010.44;6092926;23;20093;-91
2023/05/30 08:41:01;;;;;;;0.77;0.77;;;;;;;18.92;100.00;100022.84;6070887;23;20342;-92
2023/05/30 08:43:27;;;;;;;0.55;0.55;;;;;;;18.95;100.00;100013.41;6094425;23;20015;-92
2023/05/30 08:45:53;;;;;;;0.80;0.80;;;;;;;18.89;100.00;100027.38;6069123;23;20065;-92
2023/05/30 08:48:20;;;;;;;1.67;0.75;;;;;;;18.93;100.00;100018.72;6068272;23;20344;-94
2023/05/30 08:50:46;;;;;;;0.82;0.82;;;;;;;18.93;100.00;100024.34;6068645;23;20021;-91
2023/05/30 08:53:13;;;;;;;0.75;0.52;;;;;;;18.98;100.00;100016.00;6043753;23;20046;-92
2023/05/30 08:56:07;;;;;;;0.45;0.43;;;;;;;19.04;100.00;100019.66;6067999;23;20469;-93
2023/05/30 08:58:36;;;;;;;2.38;0.60;;;;;;;19.24;100.00;100021.63;6069248;23;20018;-93
2023/05/30 09:01:02;;;;;;;3.95;2.00;;;;;;;19.35;100.00;100021.72;6068297;23;20033;-94
2023/05/30 09:03:29;;;;;;;1.52;0.95;;;;;;;19.45;100.00;100017.47;6090958;23;20022;-93
2023/05/30 09:05:55;;;;;;;0.85;0.85;;;;;;;19.43;99.32;100011.59;6091886;23;20467;-92
2023/05/30 09:08:23;;;;;;;0.82;0.73;;;;;;;19.64;100.00;100017.91;6068399;23;20023;-93
2023/05/30 09:10:51;;;;;;;0.38;0.38;;;;;;;19.82;100.00;100020.31;6068572;23;20025;-95
2023/05/30 09:13:17;;;;;;;1.65;1.15;;;;;;;19.96;99.13;100013.00;6043630;23;20018;-92
2023/05/30 09:15:46;;;;;;;2.47;1.27;;;;;;;19.88;92.98;100006.31;6067709;23;20023;-93
2023/05/30 09:18:12;;;;;;;0.25;0.25;;;;;;;19.79;93.75;100009.31;6066581;23;20446;-93
2023/05/30 09:20:39;;;;;;;0.88;0.88;;;;;;;19.95;94.60;100014.28;6091647;23;20018;-93
2023/05/30 09:23:06;;;;;;;0.32;0.32;;;;;;;19.85;97.62;100007.31;6067596;23;20502;-94
2023/05/30 09:25:46;;;;;;;1.73;1.30;;;;;;;19.91;97.58;100013.75;6068431;23;20042;-93
2023/05/30 09:28:12;;;;;;;0.60;0.55;;;;;;;19.92;99.28;100007.63;6067621;23;20362;-93
2023/05/30 09:30:55;;;;;;;1.50;1.40;;;;;;;19.95;100.00;100005.81;6067955;23;20019;-94
2023/05/30 09:33:20;;;;;;;0.70;0.70;;;;;;;19.91;100.00;100005.28;6067115;23;20025;-93
2023/05/30 09:35:53;;;;;;;1.75;0.90;;;;;;;20.11;100.00;100007.97;6092787;23;20014;-94
2023/05/30 09:38:24;;;;;;;0.43;0.43;;;;;;;20.35;100.00;100016.84;6067682;23;20081;-93
2023/05/30 09:41:10;;;;;;;0.15;0.15;;;;;;;20.50;100.00;100013.06;6068934;23;20046;-94
2023/05/30 09:43:37;;;;;;;0.75;0.75;;;;;;;20.52;100.00;100004.88;6091235;23;20392;-93
2023/05/30 09:46:05;;;;;;;1.25;0.70;;;;;;;20.79;97.74;100004.19;6067115;23;20006;-93
2023/05/30 09:48:32;;;;;;;0.90;0.52;;;;;;;21.02;95.84;100017.09;6066965;23;20011;-94
2023/05/30 09:51:00;;;;;;;1.60;0.93;;;;;;;21.24;93.84;100008.66;6091322;23;20014;-93
2023/05/30 09:53:30;;;;;;;1.40;1.23;;;;;;;20.83;91.26;100004.72;6067841;23;20026;-93
2023/05/30 09:56:01;;;;;;;2.13;1.35;;;;;;;20.93;90.14;100006.03;6091230;23;20014;-93
2023/05/30 09:58:27;;;;;;;0.60;0.60;;;;;;;20.57;91.68;100010.53;6093157;23;20011;-94
2023/05/30 10:00:55;;;;;;;1.13;1.02;;;;;;;20.53;94.02;100010.00;6091383;23;20018;-92
2023/05/30 10:03:39;;;;;;;3.25;1.85;;;;;;;20.38;96.43;99987.66;6042524;23;20113;-93
2023/05/30 10:06:15;;;;;;;1.25;1.15;;;;;;;20.04;100.00;100008.44;6067296;23;20543;-93
2023/05/30 10:08:45;;;;;;;0.82;0.70;;;;;;;20.12;100.00;100012.34;6068088;23;20023;-93
2023/05/30 10:11:12;;;;;;;0.60;0.45;;;;;;;20.10;100.00;100006.44;6044897;23;20052;-92
2023/05/30 10:13:38;;;;;;;0.50;0.47;;;;;;;20.00;100.00;100002.28;6068236;23;20093;-95
2023/05/30 10:16:12;;;;;;;0.85;0.40;;;;;;;20.10;100.00;100002.88;6069230;23;20029;-93
2023/05/30 10:18:47;;;;;;;1.52;1.38;;;;;;;20.29;100.00;100010.41;6068142;23;20014;-92
2023/05/30 10:21:14;;;;;;;0.88;0.73;;;;;;;20.36;100.00;99992.25;6093317;23;20010;-92
2023/05/30 10:23:40;;;;;;;2.17;1.55;;;;;;;20.63;100.00;99997.22;6069071;23;20010;-93
2023/05/30 10:26:07;;;;;;;0.57;0.57;;;;;;;20.73;100.00;99997.78;6045306;23;20272;-93
2023/05/30 10:28:34;;;;;;;1.13;0.95;;;;;;;20.83;100.00;99987.78;6046596;23;20048;-93
2023/05/30 10:31:01;;;;;;;1.40;0.55;;;;;;;20.95;99.04;99989.34;6069577;23;20014;-94
2023/05/30 10:33:28;;;;;;;2.17;0.90;;;;;;;20.87;98.26;99982.69;6067876;23;20022;-92
2023/05/30 10:35:54;;;;;;;0.73;0.73;;;;;;;20.85;97.49;99983.22;6068553;23;20070;-94
2023/05/30 10:38:21;;;;;;;0.32;0.32;;;;;;;21.05;94.99;99976.56;6094533;23;20014;-93
2023/05/30 10:40:57;;;;;;;0.93;0.85;;;;;;;21.37;95.11;99975.09;6072702;23;20431;-94
2023/05/30 10:43:29;;;;;;;1.02;0.95;;;;;;;21.71;92.26;99972.25;6073377;23;20019;-92
2023/05/30 10:46:11;;;;;;;1.15;0.85;;;;;;;21.94;91.67;99970.16;6067013;23;20081;-93
2023/05/30 10:48:52;;;;;;;1.73;1.05;;;;;;;22.27;87.24;99984.19;6090496;23;20419;-94
2023/05/30 10:51:18;;;;;;;1.63;0.80;;;;;;;22.47;85.43;99977.44;6092153;23;20089;-93
2023/05/30 10:53:44;;;;;;;0.55;0.55;;;;;;;22.46;84.78;99958.94;6066309;23;20052;-94
2023/05/30 10:56:29;;;;;;;1.35;0.80;;;;;;;22.70;83.94;99981.72;6043330;23;20013;-93
2023/05/30 10:58:55;;;;;;;3.40;0.75;;;;;;;22.69;79.92;99977.34;6089413;23;20022;-90
2023/05/30 11:01:28;;;;;;;0.77;0.60;;;;;;;22.70;80.87;99968.34;6089474;23;20130;-92
2023/05/30 11:03:59;;;;;;;2.60;1.05;;;;;;;22.66;80.07;99978.38;6062939;23;20141;-92
2023/05/30 11:06:26;;;;;;;1.63;0.85;;;;;;;22.69;82.99;99985.81;6065508;23;20077;-92
2023/05/30 11:08:53;;;;;;;1.00;0.90;;;;;;;22.78;82.88;99969.34;6089411;23;20089;-91
2023/05/30 11:11:19;;;;;;;1.17;0.80;;;;;;;22.81;80.19;99978.06;6065265;23;20348;-91
2023/05/30 11:13:50;;;;;;;2.22;1.10;;;;;;;22.89;76.80;99976.22;6090648;23;20011;-92
2023/05/30 11:16:25;;;;;;;2.00;0.70;;;;;;;22.99;77.56;99974.59;6064918;23;20045;-92
2023/05/30 11:18:53;;;;;;;0.40;0.40;;;;;;;23.05;76.58;99981.75;6087679;23;20128;-93
2023/05/30 11:21:53;;;;;;;2.10;1.55;;;;;;;23.15;75.79;99977.31;6041828;23;20013;-91
2023/05/30 11:24:22;;;;;;;0.30;0.30;;;;;;;23.03;75.78;99967.38;6064156;23;20548;-93
2023/05/30 11:27:09;;;;;;;0.77;0.60;;;;;;;23.04;75.42;99974.59;6066295;23;20025;-92
2023/05/30 11:29:55;;;;;;;0.47;0.47;;;;;;;23.02;73.31;99970.72;6066305;23;20042;-92
2023/05/30 11:32:28;;;;;;;0.73;0.73;;;;;;;22.94;74.64;99967.69;6093128;23;20069;-95
2023/05/30 11:34:58;;;;;;;4.25;1.25;;;;;;;23.01;77.56;99975.59;6071894;23;20022;-95